createdAt,value
2023-03-29T00:01:35.670Z,101096.75
2023-03-29T00:04:06.579Z,101103.03
2023-03-29T00:06:34.226Z,101090.88
2023-03-29T00:09:01.954Z,101093.84
2023-03-29T00:11:28.937Z,101083.47
2023-03-29T00:13:55.886Z,101083.00
2023-03-29T00:16:23.184Z,101082.41
2023-03-29T00:18:50.725Z,101066.91
2023-03-29T00:21:17.976Z,101069.78
2023-03-29T00:23:52.097Z,101068.25
2023-03-29T00:26:21.841Z,101070.31
2023-03-29T00:28:48.644Z,101059.00
2023-03-29T00:31:21.025Z,101065.47
2023-03-29T00:33:50.754Z,101060.22
2023-03-29T00:36:25.008Z,101054.13
2023-03-29T00:38:51.701Z,101055.03
2023-03-29T00:41:21.046Z,101048.06
2023-03-29T00:44:04.342Z,101052.63
2023-03-29T00:46:35.109Z,101039.59
2023-03-29T00:49:14.005Z,101037.97
2023-03-29T00:51:48.273Z,101045.22
2023-03-29T00:54:22.992Z,101042.72
2023-03-29T00:56:51.878Z,101033.13
2023-03-29T00:59:32.809Z,101026.25
2023-03-29T01:02:05.779Z,101024.66
2023-03-29T01:05:05.311Z,101020.44
2023-03-29T01:08:11.918Z,101013.31
2023-03-29T01:11:02.870Z,101012.66
2023-03-29T01:14:05.460Z,101001.31
2023-03-29T01:16:41.775Z,101001.31
2023-03-29T01:19:19.047Z,101001.31
2023-03-29T01:22:26.073Z,100990.88
2023-03-29T01:25:30.384Z,100989.25
2023-03-29T01:28:08.773Z,100984.84
2023-03-29T01:30:56.155Z,100984.38
2023-03-29T01:33:34.059Z,100985.81
2023-03-29T01:36:19.094Z,100974.84
2023-03-29T01:39:06.978Z,100977.72
2023-03-29T01:42:10.212Z,100971.81
2023-03-29T01:44:48.395Z,100964.34
2023-03-29T01:48:07.781Z,100954.00
2023-03-29T01:51:05.215Z,100954.28
2023-03-29T01:54:05.356Z,100947.06
2023-03-29T01:56:53.156Z,100941.94
2023-03-29T01:59:33.280Z,100935.91
2023-03-29T02:02:08.411Z,100922.88
2023-03-29T02:04:55.202Z,100923.75
2023-03-29T02:07:37.313Z,100923.00
2023-03-29T02:10:09.163Z,100907.22
2023-03-29T02:12:37.180Z,100915.03
2023-03-29T02:15:12.744Z,100915.09
2023-03-29T02:17:51.156Z,100906.56
2023-03-29T02:20:33.232Z,100900.53
2023-03-29T02:23:27.357Z,100888.69
2023-03-29T02:25:56.930Z,100885.16
2023-03-29T02:28:29.704Z,100883.53
2023-03-29T02:31:14.993Z,100877.38
2023-03-29T02:34:30.967Z,100876.41
2023-03-29T02:37:15.527Z,100867.59
2023-03-29T02:39:52.400Z,100861.22
2023-03-29T02:42:21.767Z,100863.03
2023-03-29T02:44:57.035Z,100864.63
2023-03-29T02:47:37.134Z,100848.69
2023-03-29T02:50:05.134Z,100840.81
2023-03-29T02:53:05.593Z,100842.59
2023-03-29T02:55:38.302Z,100840.53
2023-03-29T02:58:08.663Z,100839.56
2023-03-29T03:00:45.037Z,100835.00
2023-03-29T03:03:15.449Z,100834.25
2023-03-29T03:05:49.582Z,100825.31
2023-03-29T03:08:16.292Z,100812.75
2023-03-29T03:10:43.107Z,100818.97
2023-03-29T03:13:09.917Z,100812.00
2023-03-29T03:15:44.670Z,100812.13
2023-03-29T03:18:21.370Z,100812.00
2023-03-29T03:21:09.156Z,100797.84
2023-03-29T03:23:36.989Z,100806.59
2023-03-29T03:26:03.949Z,100798.69
2023-03-29T03:28:32.228Z,100809.09
2023-03-29T03:31:02.549Z,100799.16
2023-03-29T03:33:29.559Z,100790.16
2023-03-29T03:36:06.521Z,100791.94
2023-03-29T03:38:35.222Z,100797.94
2023-03-29T03:41:02.699Z,100794.16
2023-03-29T03:43:43.150Z,100803.66
2023-03-29T03:46:10.462Z,100792.03
2023-03-29T03:48:37.581Z,100796.41
2023-03-29T03:51:04.770Z,100791.84
2023-03-29T03:53:33.493Z,100789.94
2023-03-29T03:56:02.150Z,100782.72
2023-03-29T03:58:28.852Z,100785.00
2023-03-29T04:00:55.560Z,100779.75
2023-03-29T04:03:22.680Z,100775.41
2023-03-29T04:05:50.264Z,100772.75
2023-03-29T04:08:16.967Z,100769.31
2023-03-29T04:11:00.131Z,100774.72
2023-03-29T04:13:30.145Z,100772.19
2023-03-29T04:15:58.807Z,100771.44
2023-03-29T04:18:29.742Z,100769.06
2023-03-29T04:20:56.856Z,100771.81
2023-03-29T04:23:23.778Z,100767.63
2023-03-29T04:25:56.550Z,100765.94
2023-03-29T04:28:30.824Z,100773.25
2023-03-29T04:30:57.606Z,100771.72
2023-03-29T04:33:24.315Z,100766.41
2023-03-29T04:35:54.223Z,100766.41
2023-03-29T04:38:28.584Z,100765.25
2023-03-29T04:40:58.197Z,100766.94
2023-03-29T04:43:24.910Z,100763.34
2023-03-29T04:45:55.109Z,100766.00
2023-03-29T04:48:22.450Z,100767.63
2023-03-29T04:50:49.456Z,100761.47
2023-03-29T04:53:16.396Z,100755.16
2023-03-29T04:55:45.749Z,100755.09
2023-03-29T04:58:12.913Z,100748.78
2023-03-29T05:00:41.517Z,100753.28
2023-03-29T05:03:11.315Z,100747.84
2023-03-29T05:05:38.451Z,100740.72
2023-03-29T05:08:05.735Z,100743.09
2023-03-29T05:10:32.472Z,100739.28
2023-03-29T05:12:59.312Z,100729.00
2023-03-29T05:15:26.129Z,100728.59
2023-03-29T05:17:56.021Z,100728.19
2023-03-29T05:20:23.579Z,100722.66
2023-03-29T05:33:54.233Z,100716.47
2023-03-29T05:36:21.391Z,100711.13
2023-03-29T05:38:51.299Z,100712.91
2023-03-29T05:41:18.753Z,100710.16
2023-03-29T05:43:45.621Z,100711.00
2023-03-29T05:46:12.819Z,100710.91
2023-03-29T05:48:41.964Z,100713.38
2023-03-29T05:53:56.537Z,100716.78
2023-03-29T05:56:23.296Z,100727.13
2023-03-29T05:58:51.361Z,100722.56
2023-03-29T06:01:19.057Z,100715.22
2023-03-29T06:03:49.232Z,100717.50
2023-03-29T06:06:16.755Z,100713.78
2023-03-29T06:08:45.021Z,100722.59
2023-03-29T06:24:46.288Z,100717.19
2023-03-29T06:40:52.634Z,100717.66
2023-03-29T06:43:19.379Z,100720.00
2023-03-29T06:45:46.144Z,100722.81
2023-03-29T06:48:12.854Z,100715.00
2023-03-29T06:50:42.074Z,100714.69
2023-03-29T06:53:08.861Z,100722.13
2023-03-29T06:55:38.829Z,100725.34
2023-03-29T06:58:05.492Z,100719.34
2023-03-29T07:00:36.499Z,100718.69
2023-03-29T07:03:13.238Z,100721.03
2023-03-29T07:05:44.874Z,100724.13
2023-03-29T07:08:18.437Z,100714.19
2023-03-29T07:10:52.912Z,100715.94
2023-03-29T07:13:19.599Z,100722.38
2023-03-29T07:15:46.429Z,100721.69
2023-03-29T07:18:13.151Z,100724.91
2023-03-29T07:20:44.290Z,100725.63
2023-03-29T07:23:11.365Z,100735.03
2023-03-29T07:25:38.380Z,100733.50
2023-03-29T07:28:06.197Z,100725.88
2023-03-29T07:30:33.818Z,100726.88
2023-03-29T07:33:06.751Z,100729.75
2023-03-29T07:35:33.577Z,100725.66
2023-03-29T07:38:00.291Z,100730.75
2023-03-29T07:40:27.317Z,100719.84
2023-03-29T07:42:59.239Z,100729.00
2023-03-29T07:45:31.001Z,100725.66
2023-03-29T07:48:03.238Z,100726.13
2023-03-29T07:50:32.543Z,100727.47
2023-03-29T07:53:06.526Z,100728.13
2023-03-29T07:55:34.366Z,100729.59
2023-03-29T07:58:01.502Z,100727.06
2023-03-29T08:00:28.439Z,100733.41
2023-03-29T08:02:55.871Z,100734.84
2023-03-29T08:05:33.608Z,100725.22
2023-03-29T08:08:09.429Z,100732.13
2023-03-29T08:10:47.324Z,100725.13
2023-03-29T08:13:21.211Z,100718.09
2023-03-29T08:15:48.738Z,100713.06
2023-03-29T08:18:15.537Z,100713.19
2023-03-29T08:20:44.815Z,100715.25
2023-03-29T08:23:14.067Z,100713.19
2023-03-29T08:25:50.242Z,100711.38
2023-03-29T08:28:17.056Z,100702.34
2023-03-29T08:30:44.073Z,100700.00
2023-03-29T08:33:10.913Z,100707.53
2023-03-29T08:35:37.820Z,100705.13
2023-03-29T08:38:05.362Z,100704.63
2023-03-29T08:40:32.192Z,100703.56
2023-03-29T08:43:49.178Z,100703.00
2023-03-29T08:47:11.583Z,100697.25
2023-03-29T08:49:52.130Z,100695.25
2023-03-29T08:52:54.261Z,100695.63
2023-03-29T08:55:33.389Z,100701.72
2023-03-29T08:58:12.372Z,100693.84
2023-03-29T09:01:05.949Z,100684.75
2023-03-29T09:03:48.440Z,100683.56
2023-03-29T09:06:22.145Z,100683.56
2023-03-29T09:08:52.618Z,100686.78
2023-03-29T09:11:51.499Z,100675.75
2023-03-29T09:15:15.221Z,100679.78
2023-03-29T09:18:09.708Z,100673.38
2023-03-29T09:22:05.137Z,100672.31
2023-03-29T09:25:03.649Z,100676.78
2023-03-29T09:28:02.401Z,100670.75
2023-03-29T09:31:10.182Z,100671.09
2023-03-29T09:34:26.491Z,100671.81
2023-03-29T09:37:09.771Z,100671.34
2023-03-29T09:39:41.698Z,100670.38
2023-03-29T09:42:15.385Z,100664.94
2023-03-29T09:45:08.767Z,100667.28
2023-03-29T09:47:50.135Z,100669.00
2023-03-29T09:50:37.138Z,100664.34
2023-03-29T09:53:20.574Z,100664.16
2023-03-29T09:55:50.896Z,100662.72
2023-03-29T09:58:29.006Z,100656.19
2023-03-29T10:01:08.247Z,100660.56
2023-03-29T10:03:43.112Z,100650.34
2023-03-29T10:06:12.494Z,100651.44
2023-03-29T10:08:50.440Z,100649.69
2023-03-29T10:11:38.413Z,100649.44
2023-03-29T10:14:16.908Z,100657.94
2023-03-29T10:16:55.800Z,100657.16
2023-03-29T10:19:36.782Z,100652.13
2023-03-29T10:22:20.013Z,100644.66
2023-03-29T10:24:57.082Z,100645.66
2023-03-29T10:27:36.138Z,100645.47
2023-03-29T10:30:21.321Z,100648.97
2023-03-29T10:33:02.826Z,100642.81
2023-03-29T10:35:46.572Z,100635.59
2023-03-29T10:38:24.834Z,100642.25
2023-03-29T10:41:10.307Z,100635.81
2023-03-29T10:43:45.364Z,100631.97
2023-03-29T10:46:30.810Z,100633.56
2023-03-29T10:49:19.606Z,100638.91
2023-03-29T10:51:49.536Z,100653.66
2023-03-29T10:54:23.177Z,100640.88
2023-03-29T10:57:11.140Z,100639.88
2023-03-29T11:00:54.802Z,100641.69
2023-03-29T11:04:07.100Z,100639.91
2023-03-29T11:06:57.597Z,100636.25
2023-03-29T11:10:05.150Z,100643.75
2023-03-29T11:12:56.809Z,100643.31
2023-03-29T11:15:56.003Z,100639.59
2023-03-29T11:19:11.840Z,100647.13
2023-03-29T11:22:35.371Z,100642.41
2023-03-29T11:25:43.797Z,100637.03
2023-03-29T11:29:05.642Z,100632.44
2023-03-29T11:32:10.596Z,100634.88
2023-03-29T11:35:21.225Z,100623.22
2023-03-29T11:38:10.167Z,100605.53
2023-03-29T11:41:04.861Z,100593.38
2023-03-29T11:44:04.361Z,100591.69
2023-03-29T11:46:46.848Z,100592.13
2023-03-29T11:49:54.574Z,100594.59
2023-03-29T11:52:51.076Z,100592.41
2023-03-29T11:55:35.548Z,100594.56
2023-03-29T11:58:27.037Z,100592.31
2023-03-29T12:01:22.227Z,100588.00
2023-03-29T12:04:22.866Z,100590.69
2023-03-29T12:07:12.084Z,100600.81
2023-03-29T12:09:53.347Z,100594.38
2023-03-29T12:12:56.320Z,100598.47
2023-03-29T12:15:29.454Z,100596.75
2023-03-29T12:18:30.309Z,100602.31
2023-03-29T12:21:11.661Z,100606.28
2023-03-29T12:23:47.162Z,100591.56
2023-03-29T12:26:53.935Z,100582.91
2023-03-29T12:30:28.780Z,100586.44
2023-03-29T12:33:26.497Z,100589.28
2023-03-29T12:36:49.795Z,100591.69
2023-03-29T12:39:21.961Z,100594.50
2023-03-29T12:41:51.647Z,100592.09
2023-03-29T12:44:23.952Z,100588.44
2023-03-29T12:47:02.330Z,100586.03
2023-03-29T12:49:38.955Z,100574.88
2023-03-29T12:52:36.592Z,100585.91
2023-03-29T12:55:48.734Z,100581.34
2023-03-29T12:58:42.281Z,100578.53
2023-03-29T13:01:37.834Z,100571.59
2023-03-29T13:04:36.444Z,100572.72
2023-03-29T13:07:34.708Z,100562.56
2023-03-29T13:10:27.103Z,100571.19
2023-03-29T13:12:54.542Z,100573.72
2023-03-29T13:15:29.998Z,100571.88
2023-03-29T13:18:17.085Z,100574.56
2023-03-29T13:21:30.073Z,100573.44
2023-03-29T13:25:01.698Z,100576.84
2023-03-29T13:28:02.307Z,100570.91
2023-03-29T13:30:59.474Z,100570.75
2023-03-29T13:33:57.227Z,100556.63
2023-03-29T13:37:25.246Z,100559.84
2023-03-29T13:39:55.963Z,100556.31
2023-03-29T13:42:43.053Z,100557.97
2023-03-29T13:45:32.663Z,100546.66
2023-03-29T13:48:35.969Z,100543.97
2023-03-29T13:51:41.699Z,100550.34
2023-03-29T13:54:32.626Z,100556.72
2023-03-29T13:57:20.436Z,100547.94
2023-03-29T14:00:28.627Z,100554.91
2023-03-29T14:03:07.271Z,100545.69
2023-03-29T14:06:21.936Z,100545.69
2023-03-29T14:08:51.709Z,100551.31
2023-03-29T14:11:31.368Z,100546.94
2023-03-29T14:14:07.344Z,100544.13
2023-03-29T14:16:47.544Z,100539.19
2023-03-29T14:19:36.075Z,100541.31
2023-03-29T14:22:15.001Z,100542.59
2023-03-29T14:24:52.703Z,100540.72
2023-03-29T14:27:22.089Z,100529.69
2023-03-29T14:29:54.295Z,100528.97
2023-03-29T14:32:31.834Z,100524.47
2023-03-29T14:35:00.626Z,100516.66
2023-03-29T14:37:31.005Z,100518.97
2023-03-29T14:39:59.272Z,100515.72
2023-03-29T14:42:32.473Z,100504.56
2023-03-29T14:45:16.755Z,100505.56
2023-03-29T14:47:47.014Z,100496.75
2023-03-29T14:50:30.984Z,100495.56
2023-03-29T14:53:01.698Z,100502.09
2023-03-29T14:55:28.770Z,100509.63
2023-03-29T14:57:57.284Z,100509.78
2023-03-29T15:00:43.466Z,100512.47
2023-03-29T15:03:16.332Z,100510.63
2023-03-29T15:05:58.983Z,100497.75
2023-03-29T15:08:51.115Z,100505.41
2023-03-29T15:11:30.701Z,100505.13
2023-03-29T15:14:18.830Z,100505.84
2023-03-29T15:16:50.988Z,100503.00
2023-03-29T15:19:25.498Z,100496.34
2023-03-29T15:21:53.156Z,100498.03
2023-03-29T15:24:33.601Z,100501.72
2023-03-29T15:27:13.150Z,100507.25
2023-03-29T15:29:47.274Z,100503.28
2023-03-29T15:32:35.130Z,100494.53
2023-03-29T15:35:24.847Z,100501.75
2023-03-29T15:37:53.670Z,100496.09
2023-03-29T15:40:28.180Z,100505.13
2023-03-29T15:42:55.564Z,100494.97
2023-03-29T15:45:23.211Z,100498.34
2023-03-29T15:47:50.215Z,100492.69
2023-03-29T15:50:19.944Z,100499.63
2023-03-29T15:52:46.710Z,100485.47
2023-03-29T15:55:18.268Z,100476.16
2023-03-29T15:57:49.085Z,100470.75
2023-03-29T16:00:20.993Z,100472.63
2023-03-29T16:19:14.169Z,100455.22
2023-03-29T16:21:54.133Z,100453.50
2023-03-29T16:24:29.442Z,100442.50
2023-03-29T16:27:01.466Z,100449.56
2023-03-29T16:29:29.319Z,100439.50
2023-03-29T16:31:56.319Z,100439.94
2023-03-29T16:34:24.096Z,100436.41
2023-03-29T16:36:52.885Z,100440.78
2023-03-29T16:39:22.689Z,100442.47
2023-03-29T16:41:52.900Z,100438.25
2023-03-29T16:44:23.963Z,100443.06
2023-03-29T16:46:54.610Z,100450.44
2023-03-29T16:49:22.468Z,100445.31
2023-03-29T16:51:49.707Z,100444.91
2023-03-29T16:54:19.906Z,100450.16
2023-03-29T16:56:52.722Z,100441.38
2023-03-29T16:59:19.362Z,100449.88
2023-03-29T17:01:46.416Z,100446.75
2023-03-29T17:04:13.176Z,100452.28
2023-03-29T17:06:44.158Z,100449.72
2023-03-29T17:09:13.297Z,100448.28
2023-03-29T17:14:51.661Z,100445.91
2023-03-29T17:17:19.186Z,100442.50
2023-03-29T17:19:46.115Z,100446.03
2023-03-29T17:22:18.914Z,100441.94
2023-03-29T17:24:49.183Z,100450.28
2023-03-29T17:27:19.346Z,100444.34
2023-03-29T17:29:46.000Z,100448.00
2023-03-29T17:32:15.697Z,100443.66
2023-03-29T17:34:48.448Z,100452.66
2023-03-29T17:37:17.634Z,100454.38
2023-03-29T17:39:53.314Z,100450.97
2023-03-29T17:42:23.005Z,100457.31
2023-03-29T17:44:49.835Z,100455.78
2023-03-29T17:47:22.863Z,100453.78
2023-03-29T17:49:52.590Z,100453.94
2023-03-29T17:52:19.476Z,100453.94
2023-03-29T17:54:46.270Z,100453.09
2023-03-29T17:57:16.327Z,100455.06
2023-03-29T17:59:46.111Z,100454.22
2023-03-29T18:02:20.933Z,100455.34
2023-03-29T18:04:50.496Z,100457.59
2023-03-29T18:07:17.534Z,100462.09
2023-03-29T18:09:44.224Z,100456.56
2023-03-29T18:12:10.992Z,100456.84
2023-03-29T18:14:37.633Z,100450.03
2023-03-29T18:17:04.585Z,100450.34
2023-03-29T18:19:31.257Z,100439.84
2023-03-29T18:21:58.033Z,100440.84
2023-03-29T18:24:24.802Z,100440.28
2023-03-29T18:26:51.572Z,100437.59
2023-03-29T18:29:18.398Z,100437.88
2023-03-29T18:31:46.224Z,100435.19
2023-03-29T18:34:17.428Z,100438.72
2023-03-29T18:36:46.605Z,100432.63
2023-03-29T18:39:16.809Z,100430.34
2023-03-29T18:41:43.824Z,100430.53
2023-03-29T18:44:10.758Z,100433.44
2023-03-29T18:46:37.846Z,100439.66
2023-03-29T18:49:04.602Z,100441.25
2023-03-29T18:51:34.696Z,100426.25
2023-03-29T18:54:04.474Z,100426.00
2023-03-29T18:56:35.522Z,100426.97
2023-03-29T18:59:06.449Z,100418.91
2023-03-29T19:01:33.710Z,100417.22
2023-03-29T19:04:00.717Z,100421.75
2023-03-29T19:06:27.537Z,100421.75
2023-03-29T19:08:55.294Z,100414.69
2023-03-29T19:11:30.478Z,100414.84
2023-03-29T19:13:59.772Z,100407.75
2023-03-29T19:16:27.549Z,100406.78
2023-03-29T19:18:54.608Z,100397.88
2023-03-29T19:21:21.317Z,100396.19
2023-03-29T19:23:51.664Z,100393.50
2023-03-29T19:26:26.389Z,100396.19
2023-03-29T19:28:53.101Z,100392.66
2023-03-29T19:31:19.932Z,100386.44
2023-03-29T19:33:46.972Z,100393.38
2023-03-29T19:36:13.688Z,100384.47
2023-03-29T19:38:43.437Z,100394.22
2023-03-29T19:41:10.318Z,100389.69
2023-03-29T19:43:37.351Z,100387.03
2023-03-29T19:46:20.788Z,100379.81
2023-03-29T19:48:48.228Z,100377.28
2023-03-29T19:51:19.466Z,100378.25
2023-03-29T19:53:48.778Z,100369.25
2023-03-29T19:56:18.578Z,100371.78
2023-03-29T19:58:46.699Z,100362.59
2023-03-29T20:01:17.854Z,100349.34
2023-03-29T20:03:46.370Z,100366.41
2023-03-29T20:06:13.371Z,100361.22
2023-03-29T20:08:42.671Z,100364.84
2023-03-29T20:11:10.677Z,100361.03
2023-03-29T20:13:44.816Z,100360.22
2023-03-29T20:16:26.438Z,100343.13
2023-03-29T20:18:54.000Z,100348.22
2023-03-29T20:21:23.327Z,100343.69
2023-03-29T20:23:50.187Z,100341.03
2023-03-29T20:26:25.780Z,100332.56
2023-03-29T20:28:52.624Z,100330.00
2023-03-29T20:31:25.700Z,100330.88
2023-03-29T20:33:52.315Z,100328.31
2023-03-29T20:36:23.216Z,100326.22
2023-03-29T20:38:51.327Z,100329.88
2023-03-29T20:41:22.814Z,100326.34
2023-03-29T20:43:58.525Z,100316.75
2023-03-29T20:46:35.723Z,100322.97
2023-03-29T20:49:08.896Z,100322.13
2023-03-29T20:51:36.853Z,100305.03
2023-03-29T20:54:07.531Z,100312.09
2023-03-29T20:56:40.161Z,100306.75
2023-03-29T20:59:15.455Z,100303.06
2023-03-29T21:01:45.316Z,100304.19
2023-03-29T21:04:12.036Z,100296.44
2023-03-29T21:06:45.662Z,100294.00
2023-03-29T21:09:13.609Z,100302.34
2023-03-29T21:11:44.436Z,100295.44
2023-03-29T21:17:00.729Z,100301.91
2023-03-29T21:19:28.218Z,100299.25
2023-03-29T21:21:55.064Z,100290.31
2023-03-29T21:24:24.779Z,100280.31
2023-03-29T21:26:52.923Z,100288.09
2023-03-29T21:29:25.284Z,100278.06
2023-03-29T21:31:52.091Z,100283.44
2023-03-29T21:34:22.794Z,100274.41
2023-03-29T21:36:50.006Z,100282.31
2023-03-29T21:39:17.228Z,100265.50
2023-03-29T21:41:43.965Z,100267.19
2023-03-29T21:44:10.891Z,100259.72
2023-03-29T21:46:37.644Z,100251.38
2023-03-29T21:49:04.511Z,100248.00
2023-03-29T21:51:31.099Z,100241.66
2023-03-29T21:53:57.794Z,100232.78
2023-03-29T21:56:24.553Z,100229.38
2023-03-29T21:58:51.197Z,100226.53
2023-03-29T22:01:17.918Z,100223.03
2023-03-29T22:03:44.668Z,100225.84
2023-03-29T22:06:14.538Z,100219.63
2023-03-29T22:08:46.597Z,100216.69
2023-03-29T22:11:16.369Z,100214.84
2023-03-29T22:13:46.049Z,100203.41
2023-03-29T22:16:18.225Z,100214.69
2023-03-29T22:18:49.624Z,100206.81
2023-03-29T22:21:31.000Z,100204.13
2023-03-29T22:24:01.850Z,100199.31
2023-03-29T22:26:34.541Z,100197.75
2023-03-29T22:29:01.779Z,100194.09
2023-03-29T22:31:32.607Z,100193.81
2023-03-29T22:34:03.473Z,100187.31
2023-03-29T22:36:31.792Z,100185.47
2023-03-29T22:39:01.707Z,100188.31
2023-03-29T22:41:28.682Z,100182.06
2023-03-29T22:43:58.733Z,100175.72
2023-03-29T22:46:28.205Z,100175.88
2023-03-29T22:48:55.067Z,100169.53
2023-03-29T22:51:25.031Z,100164.44
2023-03-29T22:53:51.954Z,100164.59
2023-03-29T22:56:18.757Z,100164.03
2023-03-29T22:58:46.057Z,100159.50
2023-03-29T23:01:13.227Z,100161.22
2023-03-29T23:03:43.326Z,100162.75
2023-03-29T23:06:10.115Z,100150.31
2023-03-29T23:08:36.949Z,100146.66
2023-03-29T23:11:07.760Z,100147.38
2023-03-29T23:13:35.058Z,100139.47
2023-03-29T23:16:05.828Z,100145.41
2023-03-29T23:18:34.815Z,100140.03
2023-03-29T23:21:04.948Z,100136.06
2023-03-29T23:23:32.493Z,100129.56
2023-03-29T23:26:02.526Z,100124.47
2023-03-29T23:28:34.274Z,100118.84
2023-03-29T23:31:11.698Z,100126.72
2023-03-29T23:33:44.192Z,100122.06
2023-03-29T23:36:19.105Z,100117.84
2023-03-29T23:38:46.951Z,100110.50
2023-03-29T23:41:14.912Z,100110.50
2023-03-29T23:43:46.954Z,100101.75
2023-03-29T23:46:17.584Z,100101.44
2023-03-29T23:48:50.155Z,100096.78
2023-03-29T23:51:23.492Z,100091.59
2023-03-29T23:53:50.562Z,100091.59
2023-03-29T23:56:17.489Z,100085.34
2023-03-29T23:58:44.530Z,100081.56
